DNKN/KAN METAR and TAF weather

Enter ICAO airport designator
Station Type Date Time Source
DNKN METAR 2021/09/23 17:00 UTC NOAA

DNKN 231700Z 03005KT CAVOK 28/22 Q1014 NOSIG


Station Type Date Time Source
DNKN Decoded METAR 2021/09/23 17:00 UTC NOAA

Kano, Nigeria (DNKN) 12-03N 008-32E 481M
Sep 23, 2021 - 01:00 PM EDT / 2021.09.23 1700 UTC
Wind: from the NNE (030 degrees) at 6 MPH (5 KT):0
Visibility: greater than 7 mile(s):0
Temperature: 82 F (28 C)
Dew Point: 71 F (22 C)
Relative Humidity: 69%
Pressure (altimeter): 29.94 in. Hg (1014 hPa)
ob: DNKN 231700Z 03005KT CAVOK 28/22 Q1014 NOSIG
cycle: 17

Station Type Date Time Source
DNKN TAF 2021/09/23 18:27 UTC NOAA

TAF DNKN 231700Z 2318/2424 25008KT CAVOK

Example: see airport list